Aérodrome :
LOGIN :

S'inscrire | Disclaimer

   EN    FR    IT 

 










Légende :    VFR   VFR Marginal   IFR   IFR Intensif   IFR Très Intensif
Visi : 
Plafond : 
>= 8 km
>= 3000ft
5 à 8 km
1000 à 3000 ft
1500m à 5 km
500 à 1000 ft
800 à 1500m
200 à 500 ft
< 800m
< 200 ft
Symboles :   Orages  Brouillard  Fortes neiges  Fortes précipitations  Vent > 20 kt
SIGMETs :   Divers  Orages  Givrage  Turbulence  Onde Orograph.  Cendres Volcan.






- Altitude de l'aérodrome : 287 ft


LFRL - Lanveoc Poulmic

DERNIER METAR :
  • 101030Z AUTO 04008KT 010V080 9999 BKN013 BKN018 BKN029 09/08 Q1011

METARs EXPIRÉS :
  • 101000Z AUTO 05008KT 010V080 9999 BKN013 OVC019 08/06 Q1011
  • 100930Z AUTO 04009KT 010V070 9999 BKN011 OVC022 08/06 Q1010
  • 100900Z AUTO 03010KT 350V050 9999 BKN010 OVC020 08/07 Q1010
  • 100830Z AUTO 03010KT 350V050 9999 BKN010 BKN019 OVC044 07/07 Q1010

TAF TAF LFRL
Valide du 09 à 12h jusqu'au 10 à 12h UTC


091100Z 0912/1012 VRB04KT 9999 BKN040
TEMPO 0912/0915 4000 -RA FEW040TCU
PROB40
TEMPO 0915/0924 4000 RA BKN007
BECMG 0917/0919 04010KT
BECMG 1000/1002 3000 RA BKN007
BECMG 1007/1010 9999 NSW BKN015
TEMPO 1010/1012 4000 SHRA BKN012TCU



MET'MAP, la Météo Aéronautique d'un coup d'oeil ! - Copyright ORBIFLY Décembre 2007 - Disclaimer

ORBIFLY MET'MAP TEAM :

Programmation & Développement : Alexandra Zaïnal
Sur une idée originale de : Baudouin d'Aumeries
Assistance à la programmation : Marc-Olivier Méhu
Soutien technique & logistique : Manuel Goepfert

Contact : metmap@orbifly.com




SOURCES & CREDITS :

   NOAA